This is the latest recevied weather packets stored in our database for station/object WX5KDM. If no packets are shown the sender has not sent any weather packets the latest 10 day(s).
| Time | Temp. | Humidity | Pressure | Rain* | Wind** | Luminosity | Snow |
|---|---|---|---|---|---|---|---|
| 1788361186 | 32.22° C | 61% | 1019.7 hPa | 0 mm | - | - | - |
| 1788360881 | 32.22° C | 60% | 1019.5 hPa | 0 mm | - | - | - |
| 1788360576 | 31.67° C | 64% | 1019.6 hPa | 0 mm | - | - | - |
| 1788360272 | 31.67° C | 64% | 1019.6 hPa | 0 mm | - | - | - |
| 1788359971 | 31.67° C | 64% | 1019.8 hPa | 0 mm | - | - | - |
| 1788359666 | 31.67° C | 64% | 1019.5 hPa | 0 mm | - | - | - |
| 1788359363 | 32.22° C | 64% | 1019.7 hPa | 0 mm | - | - | - |
| 1788359059 | 31.67° C | 65% | 1019.8 hPa | 0 mm | - | - | - |
| 1788358754 | 32.22° C | 64% | 1019.6 hPa | 0 mm | - | - | - |
| 1788358449 | 31.67° C | 67% | 1019.8 hPa | 0 mm | - | - | - |
| 1788358148 | 31.67° C | 66% | 1019.8 hPa | 0 mm | - | - | - |
| 1788357844 | 30.56° C | 68% | 1019.8 hPa | 0 mm | - | - | - |
| 1788357543 | 30° C | 69% | 1019.8 hPa | 0 mm | - | - | - |
| 1788357239 | 30° C | 69% | 1019.8 hPa | 0 mm | - | - | - |
| 1788356938 | 29.44° C | 71% | 1019.8 hPa | 0 mm | - | - | - |
| 1788356638 | 29.44° C | 70% | 1019.8 hPa | 0 mm | - | - | - |
| 1788356329 | 30° C | 68% | 1020 hPa | 0 mm | - | - | - |
| 1788356028 | 30° C | 70% | 1019.9 hPa | 0 mm | - | - | - |
| 1788355724 | 29.44° C | 72% | 1019.7 hPa | 0 mm | - | - | - |
| 1788355419 | 28.33° C | 75% | 1019.8 hPa | 0 mm | - | - | - |
| 1788355114 | 28.33° C | 75% | 1019.7 hPa | 0 mm | - | - | - |
| 1788354811 | 27.78° C | 78% | 1019.7 hPa | 0 mm | - | - | - |
| 1788354510 | 27.22° C | 79% | 1019.7 hPa | 0 mm | - | - | - |
| 1788354206 | 26.67° C | 82% | 1019.9 hPa | 0 mm | - | - | - |
| 1788353901 | 26.67° C | 83% | 1019.4 hPa | 0 mm | - | - | - |
* Rain latest hour (hover to see other rain measurements)
** Current wind speed in m/s (hover to see current wind gust speed)